Westwood Rainier — C6SI3 — position and weather

sailwx.info

Track history (hours):
 
Tides and Currents Weather Stations Pressure Air Temp Water Temp Dewpoint Dewpoint Depression Visibility Wind Speed Wind Dir Waves Ship Positions

Westwood Rainier

Last reported at 2014-Oct-13 10:33 UTC. Time now 2014-Oct-21 16:59 UTC.
Position N 46°20' W 124°21'.
Warning: this ship's position is 8 days out of date.

Type: Cargo ship. MMSI: 311348993.

Date/timePositionNaut miles runAvg speedWind from/ knotsBaromVisibWave heightAir tempDewpointWater temp
2014-Oct-13 10:33N 46°20' W 124°21'10 9.6
2014-Oct-13 09:34N 46°13' W 124°12'1110.7
2014-Oct-13 08:33N 46°12' W 123°56'10 9.9
2014-Oct-13 07:34N 46°14' W 123°42'51 9.5
2014-Oct-13 02:10N 45°41' W 122°47'3 4.8
2014-Oct-13 01:33N 45°38' W 122°45'0 0.0
2014-Oct-12 19:16N 45°38' W 122°45'0 0.0
2014-Oct-12 18:28N 45°38' W 122°45'0 0.0
2014-Oct-12 16:22N 45°38' W 122°45'  
2014-Oct-09 23:23N 46°08' W 122°59'0 0.0
2014-Oct-09 22:32N 46°08' W 122°59'0 0.0
2014-Oct-09 21:32N 46°08' W 122°59'0 0.0
2014-Oct-09 20:29N 46°08' W 122°59'0 0.0
2014-Oct-09 19:32N 46°08' W 122°59'0 0.0
2014-Oct-09 18:17N 46°08' W 122°59'0 0.0
2014-Oct-09 17:26N 46°08' W 122°59'0 0.0
2014-Oct-09 16:29N 46°08' W 122°59'0 0.0
2014-Oct-09 15:29N 46°08' W 122°59'0 0.0
2014-Oct-09 14:23N 46°08' W 122°59'0 0.0
2014-Oct-09 13:29N 46°08' W 122°59'0 0.0
2014-Oct-09 12:26N 46°08' W 122°59'0 0.0
2014-Oct-09 11:29N 46°08' W 122°59'0 0.0
2014-Oct-09 10:32N 46°08' W 122°59'0 0.0
2014-Oct-09 09:32N 46°08' W 122°59'0 0.0
2014-Oct-09 08:29N 46°08' W 122°59'0 0.0
2014-Oct-09 07:32N 46°08' W 122°59'0 0.0
2014-Oct-09 06:32N 46°08' W 122°59'0 0.0
2014-Oct-09 05:32N 46°08' W 122°59'0 0.0
2014-Oct-09 04:26N 46°08' W 122°59'0 0.0
2014-Oct-09 03:32N 46°08' W 122°59'0 0.0
2014-Oct-09 02:32N 46°08' W 122°59'7 7.1
2014-Oct-09 01:34N 46°11' W 123°08'1212.0
2014-Oct-09 00:34N 46°10' W 123°25'1010.2
2014-Oct-08 23:33N 46°15' W 123°38'1110.9
2014-Oct-08 22:33N 46°12' W 123°52'10 9.9
2014-Oct-08 21:34N 46°15' W 124°06'6 5.6
2014-Oct-08 20:33N 46°15' W 124°14'1110.9
2014-Oct-08 19:34N 46°23' W 124°24'1414.3
2014-Oct-08 18:33N 46°35' W 124°36'1414.4
2014-Oct-08 17:33N 46°47' W 124°46'1312.7
2014-Oct-08 16:34N 46°59' W 124°55'9 9.0
2014-Oct-08 15:34N 47°07' W 124°59'3314.9
2014-Oct-08 13:22N 47°39' W 125°09'1315.6
2014-Oct-08 12:34N 47°51' W 125°17'1515.2
2014-Oct-08 11:34N 48°06' W 125°15'1515.4
2014-Oct-08 10:34N 48°21' W 125°11'1313.4
2014-Oct-08 09:33N 48°30' W 124°57'1414.5
2014-Oct-08 08:34N 48°28' W 124°35'1514.7
2014-Oct-08 07:34N 48°23' W 124°15'1514.8
2014-Oct-08 06:33N 48°17' W 123°54'1615.9
2014-Oct-08 05:33N 48°16' W 123°30'1111.6
2014-Oct-08 04:34N 48°23' W 123°17'1515.3
2014-Oct-08 03:33N 48°39' W 123°15'1413.9
2014-Oct-08 02:34N 48°50' W 123°02'1616.2
2014-Oct-08 01:34N 49°01' W 123°19'1414.3
2014-Oct-08 00:34N 49°15' W 123°21'1110.6
2014-Oct-07 23:33N 49°18' W 123°05'2 1.8
2014-Oct-07 22:31N 49°18' W 123°02'0 0.0
2014-Oct-07 21:31N 49°18' W 123°02'0 0.0
2014-Oct-07 20:31N 49°18' W 123°02'0 0.0
2014-Oct-07 19:31N 49°18' W 123°02'0 0.0
2014-Oct-07 18:31N 49°18' W 123°02'0 0.0
2014-Oct-07 17:31N 49°18' W 123°02'0 0.0
2014-Oct-07 16:31N 49°18' W 123°02'0 0.0
2014-Oct-07 15:31N 49°18' W 123°02'0 0.0
2014-Oct-07 14:31N 49°18' W 123°02'0 0.0
2014-Oct-07 13:31N 49°18' W 123°02'0 0.0
2014-Oct-07 12:31N 49°18' W 123°02'0 0.0
2014-Oct-07 11:31N 49°18' W 123°02'0 0.0
2014-Oct-07 10:31N 49°18' W 123°02'0 0.0
2014-Oct-07 09:31N 49°18' W 123°02'0 0.0
2014-Oct-07 08:31N 49°18' W 123°02'0 0.0
2014-Oct-07 07:28N 49°18' W 123°02'0 0.0
2014-Oct-07 06:31N 49°18' W 123°02'0 0.0
2014-Oct-07 05:31N 49°18' W 123°02'0 0.0
2014-Oct-07 04:31N 49°18' W 123°02'0 0.0
2014-Oct-07 03:31N 49°18' W 123°02'0 0.0
2014-Oct-07 02:31N 49°18' W 123°02'0 0.0
2014-Oct-07 01:31N 49°18' W 123°02'0 0.0
2014-Oct-07 00:31N 49°18' W 123°02'0 0.0
2014-Oct-06 23:31N 49°18' W 123°02'0 0.0
2014-Oct-06 22:31N 49°18' W 123°02'0 0.0
2014-Oct-06 21:31N 49°18' W 123°02'0 0.0
2014-Oct-06 20:31N 49°18' W 123°02'0 0.0
2014-Oct-06 19:31N 49°18' W 123°02'0 0.0
2014-Oct-06 18:31N 49°18' W 123°02'0 0.0
2014-Oct-06 17:31N 49°18' W 123°02'0 0.0
2014-Oct-06 16:31N 49°18' W 123°02'0 0.0
2014-Oct-06 15:31N 49°18' W 123°02'0 0.0
2014-Oct-06 14:31N 49°18' W 123°02'0 0.0
2014-Oct-06 13:31N 49°18' W 123°02'0 0.0
2014-Oct-06 12:31N 49°18' W 123°02'0 0.0
2014-Oct-06 11:28N 49°18' W 123°02'0 0.0
2014-Oct-06 10:31N 49°18' W 123°02'0 0.0
2014-Oct-06 09:31N 49°18' W 123°02'0 0.0
2014-Oct-06 08:31N 49°18' W 123°02'0 0.0
2014-Oct-06 07:31N 49°18' W 123°02'0 0.0
2014-Oct-06 06:31N 49°18' W 123°02'0 0.0
2014-Oct-06 05:31N 49°18' W 123°02'0 0.0
2014-Oct-06 04:31N 49°18' W 123°02'0 0.0
2014-Oct-06 03:31N 49°18' W 123°02'0 0.0
2014-Oct-06 02:31N 49°18' W 123°02'0 0.0
2014-Oct-06 01:31N 49°18' W 123°02'0 0.0
2014-Oct-06 00:31N 49°18' W 123°02'0 0.0
2014-Oct-05 23:31N 49°18' W 123°02'0 0.0
2014-Oct-05 22:31N 49°18' W 123°02'0 0.0
2014-Oct-05 21:31N 49°18' W 123°02'0 0.0
2014-Oct-05 20:31N 49°18' W 123°02'0 0.0
2014-Oct-05 19:31N 49°18' W 123°02'0 0.0
2014-Oct-05 18:31N 49°18' W 123°02'0 0.0
2014-Oct-05 17:31N 49°18' W 123°02'0 0.0
2014-Oct-05 16:31N 49°18' W 123°02'0 0.0
2014-Oct-05 15:31N 49°18' W 123°02'0 0.0
2014-Oct-05 14:31N 49°18' W 123°02'0 0.0
2014-Oct-05 13:31N 49°18' W 123°02'0 0.0
2014-Oct-05 12:28N 49°18' W 123°02'0 0.0
2014-Oct-05 11:31N 49°18' W 123°02'0 0.0
2014-Oct-05 10:31N 49°18' W 123°02'0 0.0
2014-Oct-05 09:31N 49°18' W 123°02'0 0.0
2014-Oct-05 08:31N 49°18' W 123°02'0 0.0
2014-Oct-05 07:31N 49°18' W 123°02'0 0.0
2014-Oct-05 06:31N 49°18' W 123°02'0 0.0
2014-Oct-05 05:33N 49°18' W 123°02'1 0.9
2014-Oct-05 04:31N 49°18' W 123°04'0 0.0
2014-Oct-05 03:31N 49°18' W 123°04'0 0.0
2014-Oct-05 02:31N 49°18' W 123°04'0 0.0
2014-Oct-05 01:31N 49°18' W 123°04'0 0.0
2014-Oct-05 00:31N 49°18' W 123°04'0 0.0
2014-Oct-04 23:31N 49°18' W 123°04'0 0.0
2014-Oct-04 22:28N 49°18' W 123°04'0 0.0
2014-Oct-04 21:31N 49°18' W 123°04'0 0.0
2014-Oct-04 20:31N 49°18' W 123°04'0 0.0
2014-Oct-04 19:31N 49°18' W 123°04'0 0.0
2014-Oct-04 18:31N 49°18' W 123°04'0 0.0
2014-Oct-04 17:28N 49°18' W 123°04'0 0.0
2014-Oct-04 16:31N 49°18' W 123°04'0 0.0
2014-Oct-04 15:31N 49°18' W 123°04'0 0.0
2014-Oct-04 14:31N 49°18' W 123°04'0 0.0
2014-Oct-04 13:31N 49°18' W 123°04'1 1.2
2014-Oct-04 12:34N 49°18' W 123°05'1 0.7
2014-Oct-04 11:32N 49°17' W 123°06'0 0.0
2014-Oct-04 10:32N 49°17' W 123°06'0 0.0
2014-Oct-04 09:32N 49°17' W 123°06'0 0.0
2014-Oct-04 08:32N 49°17' W 123°06'0 0.0
2014-Oct-04 07:32N 49°17' W 123°06'0 0.0
2014-Oct-04 06:26N 49°17' W 123°06'0 0.0
2014-Oct-04 05:32N 49°17' W 123°06'0 0.0
2014-Oct-04 04:32N 49°17' W 123°06'0 0.0
2014-Oct-04 03:32N 49°17' W 123°06'0 0.0
2014-Oct-04 02:32N 49°17' W 123°06'0 0.0
2014-Oct-04 01:29N 49°17' W 123°06'0 0.0
2014-Oct-04 00:32N 49°17' W 123°06'0 0.0
2014-Oct-03 23:32N 49°17' W 123°06'0 0.0
2014-Oct-03 22:32N 49°17' W 123°06'0 0.0
2014-Oct-03 21:32N 49°17' W 123°06'0 0.0
2014-Oct-03 20:32N 49°17' W 123°06'0 0.0
2014-Oct-03 19:29N 49°17' W 123°06'0 0.0
2014-Oct-03 18:32N 49°17' W 123°06'0 0.0
2014-Oct-03 17:32N 49°17' W 123°06'0 0.0
2014-Oct-03 16:32N 49°17' W 123°06'0 0.0
2014-Oct-03 15:32N 49°17' W 123°06'0 0.0
2014-Oct-03 14:32N 49°17' W 123°06'0 0.0
2014-Oct-03 13:33N 49°17' W 123°06'6 6.5
2014-Oct-03 12:33N 49°18' W 123°16'1414.3
2014-Oct-03 11:33N 49°04' W 123°20'1414.3
2014-Oct-03 10:34N 48°54' W 123°04'  
Track history (hours):
 
Tides and Currents Weather Stations Pressure Air Temp Water Temp Dewpoint Dewpoint Depression Visibility Wind Speed Wind Dir Waves Ship Positions

Westwood Rainier

Last reported at 2014-Oct-13 10:33 UTC. Time now 2014-Oct-21 16:59 UTC.
Position N 46°20' W 124°21'.
Warning: this ship's position is 8 days out of date.

Type: Cargo ship. MMSI: 311348993.

Date/timePositionNaut miles runAvg speedWind from/ knotsBaromVisibWave heightAir tempDewpointWater temp
2014-Oct-13 10:33N 46°20' W 124°21'10 9.6
2014-Oct-13 09:34N 46°13' W 124°12'1110.7
2014-Oct-13 08:33N 46°12' W 123°56'10 9.9
2014-Oct-13 07:34N 46°14' W 123°42'51 9.5
2014-Oct-13 02:10N 45°41' W 122°47'3 4.8
2014-Oct-13 01:33N 45°38' W 122°45'0 0.0
2014-Oct-12 19:16N 45°38' W 122°45'0 0.0
2014-Oct-12 18:28N 45°38' W 122°45'0 0.0
2014-Oct-12 16:22N 45°38' W 122°45'  
2014-Oct-09 23:23N 46°08' W 122°59'0 0.0
2014-Oct-09 22:32N 46°08' W 122°59'0 0.0
2014-Oct-09 21:32N 46°08' W 122°59'0 0.0
2014-Oct-09 20:29N 46°08' W 122°59'0 0.0
2014-Oct-09 19:32N 46°08' W 122°59'0 0.0
2014-Oct-09 18:17N 46°08' W 122°59'0 0.0
2014-Oct-09 17:26N 46°08' W 122°59'0 0.0
2014-Oct-09 16:29N 46°08' W 122°59'0 0.0
2014-Oct-09 15:29N 46°08' W 122°59'0 0.0
2014-Oct-09 14:23N 46°08' W 122°59'0 0.0
2014-Oct-09 13:29N 46°08' W 122°59'0 0.0
2014-Oct-09 12:26N 46°08' W 122°59'0 0.0
2014-Oct-09 11:29N 46°08' W 122°59'0 0.0
2014-Oct-09 10:32N 46°08' W 122°59'0 0.0
2014-Oct-09 09:32N 46°08' W 122°59'0 0.0
2014-Oct-09 08:29N 46°08' W 122°59'0 0.0
2014-Oct-09 07:32N 46°08' W 122°59'0 0.0
2014-Oct-09 06:32N 46°08' W 122°59'0 0.0
2014-Oct-09 05:32N 46°08' W 122°59'0 0.0
2014-Oct-09 04:26N 46°08' W 122°59'0 0.0
2014-Oct-09 03:32N 46°08' W 122°59'0 0.0
2014-Oct-09 02:32N 46°08' W 122°59'7 7.1
2014-Oct-09 01:34N 46°11' W 123°08'1212.0
2014-Oct-09 00:34N 46°10' W 123°25'1010.2
2014-Oct-08 23:33N 46°15' W 123°38'1110.9
2014-Oct-08 22:33N 46°12' W 123°52'10 9.9
2014-Oct-08 21:34N 46°15' W 124°06'6 5.6
2014-Oct-08 20:33N 46°15' W 124°14'1110.9
2014-Oct-08 19:34N 46°23' W 124°24'1414.3
2014-Oct-08 18:33N 46°35' W 124°36'1414.4
2014-Oct-08 17:33N 46°47' W 124°46'1312.7
2014-Oct-08 16:34N 46°59' W 124°55'9 9.0
2014-Oct-08 15:34N 47°07' W 124°59'3314.9
2014-Oct-08 13:22N 47°39' W 125°09'1315.6
2014-Oct-08 12:34N 47°51' W 125°17'1515.2
2014-Oct-08 11:34N 48°06' W 125°15'1515.4
2014-Oct-08 10:34N 48°21' W 125°11'1313.4
2014-Oct-08 09:33N 48°30' W 124°57'1414.5
2014-Oct-08 08:34N 48°28' W 124°35'1514.7
2014-Oct-08 07:34N 48°23' W 124°15'1514.8
2014-Oct-08 06:33N 48°17' W 123°54'1615.9
2014-Oct-08 05:33N 48°16' W 123°30'1111.6
2014-Oct-08 04:34N 48°23' W 123°17'1515.3
2014-Oct-08 03:33N 48°39' W 123°15'1413.9
2014-Oct-08 02:34N 48°50' W 123°02'1616.2
2014-Oct-08 01:34N 49°01' W 123°19'1414.3
2014-Oct-08 00:34N 49°15' W 123°21'1110.6
2014-Oct-07 23:33N 49°18' W 123°05'2 1.8
2014-Oct-07 22:31N 49°18' W 123°02'0 0.0
2014-Oct-07 21:31N 49°18' W 123°02'0 0.0
2014-Oct-07 20:31N 49°18' W 123°02'0 0.0
2014-Oct-07 19:31N 49°18' W 123°02'0 0.0
2014-Oct-07 18:31N 49°18' W 123°02'0 0.0
2014-Oct-07 17:31N 49°18' W 123°02'0 0.0
2014-Oct-07 16:31N 49°18' W 123°02'0 0.0
2014-Oct-07 15:31N 49°18' W 123°02'0 0.0
2014-Oct-07 14:31N 49°18' W 123°02'0 0.0
2014-Oct-07 13:31N 49°18' W 123°02'0 0.0
2014-Oct-07 12:31N 49°18' W 123°02'0 0.0
2014-Oct-07 11:31N 49°18' W 123°02'0 0.0
2014-Oct-07 10:31N 49°18' W 123°02'0 0.0
2014-Oct-07 09:31N 49°18' W 123°02'0 0.0
2014-Oct-07 08:31N 49°18' W 123°02'0 0.0
2014-Oct-07 07:28N 49°18' W 123°02'0 0.0
2014-Oct-07 06:31N 49°18' W 123°02'0 0.0
2014-Oct-07 05:31N 49°18' W 123°02'0 0.0
2014-Oct-07 04:31N 49°18' W 123°02'0 0.0
2014-Oct-07 03:31N 49°18' W 123°02'0 0.0
2014-Oct-07 02:31N 49°18' W 123°02'0 0.0
2014-Oct-07 01:31N 49°18' W 123°02'0 0.0
2014-Oct-07 00:31N 49°18' W 123°02'0 0.0
2014-Oct-06 23:31N 49°18' W 123°02'0 0.0
2014-Oct-06 22:31N 49°18' W 123°02'0 0.0
2014-Oct-06 21:31N 49°18' W 123°02'0 0.0
2014-Oct-06 20:31N 49°18' W 123°02'0 0.0
2014-Oct-06 19:31N 49°18' W 123°02'0 0.0
2014-Oct-06 18:31N 49°18' W 123°02'0 0.0
2014-Oct-06 17:31N 49°18' W 123°02'0 0.0
2014-Oct-06 16:31N 49°18' W 123°02'0 0.0
2014-Oct-06 15:31N 49°18' W 123°02'0 0.0
2014-Oct-06 14:31N 49°18' W 123°02'0 0.0
2014-Oct-06 13:31N 49°18' W 123°02'0 0.0
2014-Oct-06 12:31N 49°18' W 123°02'0 0.0
2014-Oct-06 11:28N 49°18' W 123°02'0 0.0
2014-Oct-06 10:31N 49°18' W 123°02'0 0.0
2014-Oct-06 09:31N 49°18' W 123°02'0 0.0
2014-Oct-06 08:31N 49°18' W 123°02'0 0.0
2014-Oct-06 07:31N 49°18' W 123°02'0 0.0
2014-Oct-06 06:31N 49°18' W 123°02'0 0.0
2014-Oct-06 05:31N 49°18' W 123°02'0 0.0
2014-Oct-06 04:31N 49°18' W 123°02'0 0.0
2014-Oct-06 03:31N 49°18' W 123°02'0 0.0
2014-Oct-06 02:31N 49°18' W 123°02'0 0.0
2014-Oct-06 01:31N 49°18' W 123°02'0 0.0
2014-Oct-06 00:31N 49°18' W 123°02'0 0.0
2014-Oct-05 23:31N 49°18' W 123°02'0 0.0
2014-Oct-05 22:31N 49°18' W 123°02'0 0.0
2014-Oct-05 21:31N 49°18' W 123°02'0 0.0
2014-Oct-05 20:31N 49°18' W 123°02'0 0.0
2014-Oct-05 19:31N 49°18' W 123°02'0 0.0
2014-Oct-05 18:31N 49°18' W 123°02'0 0.0
2014-Oct-05 17:31N 49°18' W 123°02'0 0.0
2014-Oct-05 16:31N 49°18' W 123°02'0 0.0
2014-Oct-05 15:31N 49°18' W 123°02'0 0.0
2014-Oct-05 14:31N 49°18' W 123°02'0 0.0
2014-Oct-05 13:31N 49°18' W 123°02'0 0.0
2014-Oct-05 12:28N 49°18' W 123°02'0 0.0
2014-Oct-05 11:31N 49°18' W 123°02'0 0.0
2014-Oct-05 10:31N 49°18' W 123°02'0 0.0
2014-Oct-05 09:31N 49°18' W 123°02'0 0.0
2014-Oct-05 08:31N 49°18' W 123°02'0 0.0
2014-Oct-05 07:31N 49°18' W 123°02'0 0.0
2014-Oct-05 06:31N 49°18' W 123°02'0 0.0
2014-Oct-05 05:33N 49°18' W 123°02'1 0.9
2014-Oct-05 04:31N 49°18' W 123°04'0 0.0
2014-Oct-05 03:31N 49°18' W 123°04'0 0.0
2014-Oct-05 02:31N 49°18' W 123°04'0 0.0
2014-Oct-05 01:31N 49°18' W 123°04'0 0.0
2014-Oct-05 00:31N 49°18' W 123°04'0 0.0
2014-Oct-04 23:31N 49°18' W 123°04'0 0.0
2014-Oct-04 22:28N 49°18' W 123°04'0 0.0
2014-Oct-04 21:31N 49°18' W 123°04'0 0.0
2014-Oct-04 20:31N 49°18' W 123°04'0 0.0
2014-Oct-04 19:31N 49°18' W 123°04'0 0.0
2014-Oct-04 18:31N 49°18' W 123°04'0 0.0
2014-Oct-04 17:28N 49°18' W 123°04'0 0.0
2014-Oct-04 16:31N 49°18' W 123°04'0 0.0
2014-Oct-04 15:31N 49°18' W 123°04'0 0.0
2014-Oct-04 14:31N 49°18' W 123°04'0 0.0
2014-Oct-04 13:31N 49°18' W 123°04'1 1.2
2014-Oct-04 12:34N 49°18' W 123°05'1 0.7
2014-Oct-04 11:32N 49°17' W 123°06'0 0.0
2014-Oct-04 10:32N 49°17' W 123°06'0 0.0
2014-Oct-04 09:32N 49°17' W 123°06'0 0.0
2014-Oct-04 08:32N 49°17' W 123°06'0 0.0
2014-Oct-04 07:32N 49°17' W 123°06'0 0.0
2014-Oct-04 06:26N 49°17' W 123°06'0 0.0
2014-Oct-04 05:32N 49°17' W 123°06'0 0.0
2014-Oct-04 04:32N 49°17' W 123°06'0 0.0
2014-Oct-04 03:32N 49°17' W 123°06'0 0.0
2014-Oct-04 02:32N 49°17' W 123°06'0 0.0
2014-Oct-04 01:29N 49°17' W 123°06'0 0.0
2014-Oct-04 00:32N 49°17' W 123°06'0 0.0
2014-Oct-03 23:32N 49°17' W 123°06'0 0.0
2014-Oct-03 22:32N 49°17' W 123°06'0 0.0
2014-Oct-03 21:32N 49°17' W 123°06'0 0.0
2014-Oct-03 20:32N 49°17' W 123°06'0 0.0
2014-Oct-03 19:29N 49°17' W 123°06'0 0.0
2014-Oct-03 18:32N 49°17' W 123°06'0 0.0
2014-Oct-03 17:32N 49°17' W 123°06'0 0.0
2014-Oct-03 16:32N 49°17' W 123°06'0 0.0
2014-Oct-03 15:32N 49°17' W 123°06'0 0.0
2014-Oct-03 14:32N 49°17' W 123°06'0 0.0
2014-Oct-03 13:33N 49°17' W 123°06'6 6.5
2014-Oct-03 12:33N 49°18' W 123°16'1414.3
2014-Oct-03 11:33N 49°04' W 123°20'1414.3
2014-Oct-03 10:34N 48°54' W 123°04'  

Dump ship's entire track history